Time;durP1;ratioP1;P1;durP2;ratioP2;P2;SDS_P1;SDS_P2;PMS_P1;PMS_P2;Temp;Humidity;BMP_temperature;BMP_pressure;BME280_temperature;BME280_humidity;BME280_pressure;Samples;Min_cycle;Max_cycle;Signal;HPM_P1;HPM_P2
2023/06/03 00:01:15;;;;;;;3.55;1.08;;;;;;;;;;7387341;19;20152;-91
2023/06/03 00:03:44;;;;;;;0.73;0.73;;;;;;;;;;7392044;19;20196;-91
2023/06/03 00:06:12;;;;;;;0.50;0.50;;;;;;;;;;7394668;19;20140;-91
2023/06/03 00:08:40;;;;;;;0.90;0.90;;;;;;;;;;7387356;19;20144;-91
2023/06/03 00:11:06;;;;;;;0.88;0.68;;;;;;;;;;7390750;19;20156;-92
2023/06/03 00:13:33;;;;;;;0.68;0.68;;;;;;;;;;7391161;19;20165;-91
2023/06/03 00:16:00;;;;;;;0.68;0.68;;;;;;;;;;7390667;19;20131;-91
2023/06/03 00:18:27;;;;;;;0.60;0.60;;;;;;;;;;7389688;19;20132;-91
2023/06/03 00:20:55;;;;;;;0.52;0.52;;;;;;;;;;7392363;19;20160;-92
2023/06/03 00:23:22;;;;;;;0.65;0.65;;;;;;;;;;7392979;19;20500;-91
2023/06/03 00:25:49;;;;;;;0.40;0.40;;;;;;;;;;7393688;19;20133;-91
2023/06/03 00:28:16;;;;;;;0.85;0.63;;;;;;;;;;7391949;19;20168;-90
2023/06/03 00:30:42;;;;;;;1.02;1.02;;;;;;;;;;7393370;19;20164;-91
2023/06/03 00:33:09;;;;;;;0.60;0.60;;;;;;;;;;7390967;19;20137;-90
2023/06/03 00:35:36;;;;;;;0.75;0.75;;;;;;;;;;7388321;19;20143;-90
2023/06/03 00:38:03;;;;;;;1.40;1.30;;;;;;;;;;7393143;19;20489;-90
2023/06/03 00:40:30;;;;;;;1.38;0.90;;;;;;;;;;7389462;19;20168;-91
2023/06/03 00:42:58;;;;;;;0.80;0.63;;;;;;;;;;7392911;19;20141;-89
2023/06/03 00:45:25;;;;;;;0.70;0.70;;;;;;;;;;7392491;19;20170;-90
2023/06/03 00:47:52;;;;;;;0.50;0.50;;;;;;;;;;7390785;19;20622;-90
2023/06/03 00:50:19;;;;;;;0.70;0.70;;;;;;;;;;7392866;19;20163;-92
2023/06/03 00:52:46;;;;;;;0.75;0.70;;;;;;;;;;7396333;19;20656;-90
2023/06/03 00:55:13;;;;;;;0.32;0.32;;;;;;;;;;7398067;19;20516;-91
2023/06/03 00:57:40;;;;;;;0.50;0.50;;;;;;;;;;7393000;19;20616;-92
2023/06/03 01:00:07;;;;;;;0.70;0.70;;;;;;;;;;7392727;19;20153;-90
2023/06/03 01:02:36;;;;;;;0.93;0.93;;;;;;;;;;7392659;19;20166;-91
2023/06/03 01:05:04;;;;;;;0.60;0.60;;;;;;;;;;7392156;19;20140;-91
2023/06/03 01:08:01;;;;;;;0.63;0.63;;;;;;;;;;7392827;19;20136;-91
2023/06/03 01:10:34;;;;;;;0.70;0.70;;;;;;;;;;7392302;19;20614;-92
2023/06/03 01:13:06;;;;;;;1.05;1.02;;;;;;;;;;7396022;19;20143;-91
2023/06/03 01:15:34;;;;;;;1.67;1.58;;;;;;;;;;7394959;19;20502;-90
2023/06/03 01:18:07;;;;;;;0.45;0.45;;;;;;;;;;7394470;19;20181;-92
2023/06/03 01:20:37;;;;;;;0.47;0.47;;;;;;;;;;7391904;19;20495;-91
2023/06/03 01:23:24;;;;;;;0.98;0.93;;;;;;;;;;7395533;19;20606;-91
2023/06/03 01:25:53;;;;;;;0.65;0.65;;;;;;;;;;7393011;19;20490;-92
2023/06/03 01:28:20;;;;;;;0.60;0.60;;;;;;;;;;7392831;19;20166;-91
2023/06/03 01:30:47;;;;;;;0.65;0.65;;;;;;;;;;7392794;19;20241;-91
2023/06/03 01:33:16;;;;;;;0.45;0.45;;;;;;;;;;7399928;19;20151;-91
2023/06/03 01:35:43;;;;;;;0.40;0.40;;;;;;;;;;7398568;19;20133;-91
2023/06/03 01:38:11;;;;;;;1.20;1.10;;;;;;;;;;7398123;19;20141;-91
2023/06/03 01:40:39;;;;;;;1.13;0.90;;;;;;;;;;7400037;19;20173;-91
2023/06/03 01:43:06;;;;;;;1.00;0.93;;;;;;;;;;7420781;19;20148;-91
2023/06/03 01:45:33;;;;;;;0.88;0.73;;;;;;;;;;7428512;19;20145;-93
2023/06/03 01:48:00;;;;;;;2.63;0.68;;;;;;;;;;7430587;19;20141;-92
2023/06/03 01:50:26;;;;;;;0.43;0.43;;;;;;;;;;7430549;19;20172;-94
2023/06/03 01:52:53;;;;;;;0.60;0.60;;;;;;;;;;7430610;19;20141;-93
2023/06/03 01:55:20;;;;;;;0.60;0.60;;;;;;;;;;7432106;19;20129;-92
2023/06/03 01:57:47;;;;;;;0.35;0.35;;;;;;;;;;7431084;19;20136;-90
2023/06/03 02:00:15;;;;;;;0.45;0.45;;;;;;;;;;7427180;19;20149;-89
2023/06/03 02:02:42;;;;;;;0.43;0.40;;;;;;;;;;7427691;19;20148;-90
2023/06/03 02:05:09;;;;;;;0.47;0.47;;;;;;;;;;7428332;19;20125;-90
2023/06/03 02:07:36;;;;;;;0.68;0.68;;;;;;;;;;7424535;19;20133;-91
2023/06/03 02:10:03;;;;;;;0.57;0.55;;;;;;;;;;7425397;19;20157;-90
2023/06/03 02:12:30;;;;;;;0.68;0.68;;;;;;;;;;7428853;19;20135;-90
2023/06/03 02:14:57;;;;;;;1.00;0.93;;;;;;;;;;7426612;19;20140;-89
2023/06/03 02:17:24;;;;;;;0.73;0.73;;;;;;;;;;7427581;19;20140;-91
2023/06/03 02:19:51;;;;;;;1.02;0.65;;;;;;;;;;7426198;19;20183;-89
2023/06/03 02:22:18;;;;;;;0.73;0.70;;;;;;;;;;7427063;19;20142;-91
2023/06/03 02:24:47;;;;;;;0.55;0.55;;;;;;;;;;7425736;19;20172;-91
2023/06/03 02:27:20;;;;;;;0.63;0.63;;;;;;;;;;7428074;19;20132;-89
2023/06/03 02:29:50;;;;;;;0.50;0.50;;;;;;;;;;7424470;19;20172;-91
2023/06/03 02:32:20;;;;;;;0.77;0.77;;;;;;;;;;7425343;19;20148;-90
2023/06/03 02:34:48;;;;;;;0.65;0.65;;;;;;;;;;7424782;19;20152;-91
2023/06/03 02:37:17;;;;;;;0.52;0.52;;;;;;;;;;7424933;19;20133;-92
2023/06/03 02:39:44;;;;;;;1.05;0.98;;;;;;;;;;7427525;19;20133;-93
2023/06/03 02:42:11;;;;;;;0.80;0.80;;;;;;;;;;7428677;19;20144;-90
2023/06/03 02:44:38;;;;;;;0.50;0.50;;;;;;;;;;7426006;19;20166;-91
2023/06/03 02:47:05;;;;;;;0.77;0.77;;;;;;;;;;7399625;19;20141;-92
2023/06/03 02:49:32;;;;;;;0.80;0.80;;;;;;;;;;7426259;19;20137;-93
2023/06/03 02:51:58;;;;;;;1.20;1.10;;;;;;;;;;7435095;19;20133;-93
2023/06/03 02:54:25;;;;;;;0.40;0.40;;;;;;;;;;7433170;19;20173;-92
2023/06/03 02:56:52;;;;;;;0.30;0.30;;;;;;;;;;7436128;19;20142;-93
2023/06/03 02:59:19;;;;;;;0.77;0.77;;;;;;;;;;7422065;19;20141;-91
2023/06/03 03:01:46;;;;;;;0.90;0.90;;;;;;;;;;7410752;19;20193;-90
2023/06/03 03:04:13;;;;;;;0.35;0.35;;;;;;;;;;7429626;19;20163;-91
2023/06/03 03:06:40;;;;;;;0.60;0.60;;;;;;;;;;7430638;19;20162;-89
2023/06/03 03:09:08;;;;;;;0.63;0.63;;;;;;;;;;7428427;19;20149;-90
2023/06/03 03:11:35;;;;;;;0.40;0.40;;;;;;;;;;7427501;19;20203;-91
2023/06/03 03:14:02;;;;;;;0.60;0.60;;;;;;;;;;7427098;19;20144;-89
2023/06/03 03:16:29;;;;;;;0.52;0.52;;;;;;;;;;7432144;19;20143;-90
2023/06/03 03:18:56;;;;;;;0.43;0.43;;;;;;;;;;7430210;19;20125;-90
2023/06/03 03:21:22;;;;;;;0.80;0.80;;;;;;;;;;7427264;19;20149;-91
2023/06/03 03:23:49;;;;;;;0.40;0.40;;;;;;;;;;7423275;19;20129;-89
2023/06/03 03:26:21;;;;;;;0.60;0.60;;;;;;;;;;7430871;19;20167;-89
2023/06/03 03:28:48;;;;;;;0.50;0.50;;;;;;;;;;7408911;19;20144;-90
2023/06/03 03:31:14;;;;;;;0.53;0.53;;;;;;;;;;7417062;19;20184;-95
2023/06/03 03:33:42;;;;;;;0.50;0.50;;;;;;;;;;7422769;19;20137;-92
2023/06/03 03:36:28;;;;;;;0.47;0.47;;;;;;;;;;7402006;19;20140;-91
2023/06/03 03:39:02;;;;;;;2.45;0.70;;;;;;;;;;7424873;19;20122;-93
2023/06/03 03:41:30;;;;;;;0.50;0.50;;;;;;;;;;7401317;19;20551;-91
2023/06/03 03:43:57;;;;;;;0.50;0.50;;;;;;;;;;7402518;19;20140;-91
2023/06/03 03:46:24;;;;;;;0.70;0.70;;;;;;;;;;7403574;19;20694;-91
2023/06/03 03:48:51;;;;;;;0.40;0.40;;;;;;;;;;7402441;19;20627;-90
2023/06/03 03:51:18;;;;;;;1.77;1.33;;;;;;;;;;7399507;19;20604;-91
2023/06/03 03:53:46;;;;;;;0.67;0.67;;;;;;;;;;7401766;19;20162;-91
2023/06/03 03:56:21;;;;;;;0.60;0.60;;;;;;;;;;7401656;19;20140;-92
2023/06/03 03:58:49;;;;;;;0.65;0.65;;;;;;;;;;7399550;19;20148;-91
2023/06/03 04:01:18;;;;;;;0.60;0.60;;;;;;;;;;7398281;19;20165;-92
2023/06/03 04:03:47;;;;;;;0.53;0.53;;;;;;;;;;7401092;19;20146;-92
2023/06/03 04:06:37;;;;;;;0.40;0.40;;;;;;;;;;7401561;19;20212;-91
2023/06/03 04:09:05;;;;;;;0.50;0.50;;;;;;;;;;7400588;19;20148;-91
2023/06/03 04:11:37;;;;;;;0.85;0.85;;;;;;;;;;7397156;19;20148;-92
2023/06/03 04:14:06;;;;;;;0.97;0.80;;;;;;;;;;7398838;19;20149;-92
2023/06/03 04:16:55;;;;;;;0.60;0.60;;;;;;;;;;7397348;19;20205;-92
2023/06/03 04:19:33;;;;;;;0.40;0.40;;;;;;;;;;7395477;19;20158;-92
2023/06/03 04:22:00;;;;;;;0.70;0.70;;;;;;;;;;7397006;19;20158;-92
2023/06/03 04:24:27;;;;;;;1.02;0.70;;;;;;;;;;7394918;19;20129;-92
2023/06/03 04:26:54;;;;;;;0.80;0.80;;;;;;;;;;7392602;19;20128;-92
2023/06/03 04:29:22;;;;;;;0.90;0.90;;;;;;;;;;7391686;19;20129;-92
2023/06/03 04:31:48;;;;;;;0.40;0.40;;;;;;;;;;7394152;19;20176;-94
2023/06/03 04:34:15;;;;;;;0.30;0.30;;;;;;;;;;7396189;19;20141;-91
2023/06/03 04:36:42;;;;;;;1.43;1.00;;;;;;;;;;7393681;19;20133;-91
2023/06/03 04:39:10;;;;;;;0.83;0.83;;;;;;;;;;7398635;19;20220;-92
2023/06/03 04:41:38;;;;;;;0.63;0.63;;;;;;;;;;7395982;19;20153;-91
2023/06/03 04:44:05;;;;;;;0.50;0.50;;;;;;;;;;7397470;19;20156;-91
2023/06/03 04:46:33;;;;;;;0.70;0.70;;;;;;;;;;7397044;19;20140;-92
2023/06/03 04:49:01;;;;;;;0.73;0.73;;;;;;;;;;7391415;19;20141;-91
2023/06/03 04:52:25;;;;;;;;;;;;;;;;;;;;;
2023/06/03 05:22:41;;;;;;;;;;;;;;;;;;;;;
2023/06/03 05:25:19;;;;;;;0.70;0.70;;;;;;;;;;7389913;19;20143;-92
2023/06/03 05:27:49;;;;;;;0.40;0.40;;;;;;;;;;7385100;19;20606;-91
2023/06/03 05:30:30;;;;;;;0.47;0.43;;;;;;;;;;7385415;19;20526;-91
2023/06/03 05:33:31;;;;;;;0.90;0.90;;;;;;;;;;7388802;19;20165;-92
2023/06/03 05:36:00;;;;;;;0.67;0.67;;;;;;;;;;7393949;19;20143;-92
2023/06/03 05:39:23;;;;;;;0.40;0.40;;;;;;;;;;7392481;19;20145;-93
2023/06/03 05:42:34;;;;;;;0.77;0.77;;;;;;;;;;7390269;19;20193;-92
2023/06/03 05:45:18;;;;;;;0.40;0.40;;;;;;;;;;7393793;19;20151;-92
2023/06/03 05:48:03;;;;;;;0.73;0.73;;;;;;;;;;7393517;19;20144;-92
2023/06/03 05:50:38;;;;;;;0.40;0.40;;;;;;;;;;7387564;19;20172;-92
2023/06/03 05:53:05;;;;;;;0.88;0.88;;;;;;;;;;7387767;19;20650;-92
2023/06/03 05:55:34;;;;;;;1.90;1.80;;;;;;;;;;7387546;19;20145;-91
2023/06/03 05:58:29;;;;;;;0.43;0.43;;;;;;;;;;7389356;19;20149;-92
2023/06/03 06:01:03;;;;;;;0.52;0.52;;;;;;;;;;7388925;19;20172;-93
2023/06/03 06:03:41;;;;;;;0.57;0.57;;;;;;;;;;7387700;19;20140;-92
2023/06/03 06:06:09;;;;;;;0.50;0.50;;;;;;;;;;7393991;19;20141;-90
2023/06/03 06:08:37;;;;;;;1.75;1.63;;;;;;;;;;7390371;19;20144;-89
2023/06/03 06:11:10;;;;;;;0.60;0.60;;;;;;;;;;7391065;19;20176;-91
2023/06/03 06:13:37;;;;;;;0.63;0.63;;;;;;;;;;7392085;19;20151;-90
2023/06/03 06:16:57;;;;;;;;;;;;;;;;;;;;;
2023/06/03 06:19:55;;;;;;;0.50;0.50;;;;;;;;;;7389203;19;20795;-90
2023/06/03 06:22:56;;;;;;;0.68;0.68;;;;;;;;;;7391626;19;20144;-90
2023/06/03 06:25:59;;;;;;;0.70;0.63;;;;;;;;;;7392298;19;20136;-89
2023/06/03 06:28:40;;;;;;;0.50;0.50;;;;;;;;;;7388300;19;20145;-90
2023/06/03 06:32:12;;;;;;;0.47;0.47;;;;;;;;;;7391814;19;20686;-90
2023/06/03 06:34:52;;;;;;;0.60;0.60;;;;;;;;;;7390390;19;20140;-90
2023/06/03 06:37:26;;;;;;;1.25;1.15;;;;;;;;;;7390361;19;20136;-88
2023/06/03 06:39:54;;;;;;;0.75;0.73;;;;;;;;;;7395911;19;20165;-87
2023/06/03 06:42:32;;;;;;;1.40;0.80;;;;;;;;;;7397939;19;20154;-89
2023/06/03 06:45:07;;;;;;;0.82;0.82;;;;;;;;;;7399318;19;20550;-89
2023/06/03 06:47:36;;;;;;;0.82;0.82;;;;;;;;;;7396280;19;20140;-89
2023/06/03 06:50:05;;;;;;;0.98;0.93;;;;;;;;;;7394588;19;20176;-89
2023/06/03 06:52:37;;;;;;;0.30;0.30;;;;;;;;;;7393286;19;20141;-90
2023/06/03 06:55:26;;;;;;;0.88;0.88;;;;;;;;;;7392217;19;20157;-89
2023/06/03 06:58:11;;;;;;;1.20;1.15;;;;;;;;;;7392638;19;20170;-89
2023/06/03 07:00:47;;;;;;;0.88;0.88;;;;;;;;;;7389829;19;20161;-89
2023/06/03 07:03:15;;;;;;;0.75;0.73;;;;;;;;;;7394041;19;20141;-89
2023/06/03 07:05:43;;;;;;;1.15;1.05;;;;;;;;;;7395806;19;20154;-89
2023/06/03 07:08:10;;;;;;;1.10;0.95;;;;;;;;;;7394119;19;20145;-90
2023/06/03 07:10:40;;;;;;;0.90;0.90;;;;;;;;;;7393429;19;20161;-90
2023/06/03 07:13:19;;;;;;;0.40;0.40;;;;;;;;;;7394561;19;20141;-90
2023/06/03 07:16:17;;;;;;;0.68;0.68;;;;;;;;;;7385095;19;20608;-89
2023/06/03 07:19:05;;;;;;;2.20;1.25;;;;;;;;;;7386624;19;20149;-89
2023/06/03 07:21:33;;;;;;;0.95;0.82;;;;;;;;;;7384585;19;20178;-91
2023/06/03 07:25:16;;;;;;;;;;;;;;;;;;;;;
2023/06/03 07:28:25;;;;;;;0.45;0.45;;;;;;;;;;7383143;19;20544;-91
2023/06/03 07:30:58;;;;;;;0.50;0.50;;;;;;;;;;7379761;19;20165;-91
2023/06/03 07:33:37;;;;;;;1.85;1.02;;;;;;;;;;7393301;19;20132;-91
2023/06/03 07:36:04;;;;;;;1.25;1.17;;;;;;;;;;7393728;19;20137;-89
2023/06/03 11:42:09;;;;;;;0.70;0.70;;;;;;;;;;7401356;19;20195;-89
2023/06/03 11:44:41;;;;;;;1.27;1.20;;;;;;;;;;7395427;19;20185;-88
2023/06/03 11:47:08;;;;;;;1.25;1.15;;;;;;;;;;7401191;19;20169;-90
2023/06/03 11:49:42;;;;;;;1.38;1.30;;;;;;;;;;7403079;19;20133;-89
2023/06/03 11:52:10;;;;;;;0.65;0.65;;;;;;;;;;7396747;19;20137;-92
2023/06/03 11:54:38;;;;;;;2.03;0.80;;;;;;;;;;7396485;19;20140;-91
2023/06/03 11:57:13;;;;;;;0.90;0.90;;;;;;;;;;7386391;19;20151;-90
2023/06/03 11:59:43;;;;;;;1.67;1.10;;;;;;;;;;7394151;19;20537;-87
2023/06/03 12:03:14;;;;;;;1.17;1.13;;;;;;;;;;7396204;19;20200;-88
2023/06/03 12:06:10;;;;;;;2.10;1.10;;;;;;;;;;7403847;19;20136;-88
2023/06/03 12:08:53;;;;;;;0.57;0.57;;;;;;;;;;7399675;19;20137;-86
2023/06/03 12:11:30;;;;;;;0.80;0.80;;;;;;;;;;7399241;19;20157;-88
2023/06/03 12:13:59;;;;;;;0.65;0.63;;;;;;;;;;7391300;19;20533;-87
2023/06/03 12:16:34;;;;;;;1.85;1.33;;;;;;;;;;7394631;19;20589;-88
2023/06/03 12:19:05;;;;;;;0.73;0.73;;;;;;;;;;7389570;19;20136;-89
2023/06/03 12:21:33;;;;;;;1.13;1.13;;;;;;;;;;7383059;19;20147;-88
2023/06/03 12:24:19;;;;;;;1.00;1.00;;;;;;;;;;7396786;19;20149;-89
2023/06/03 12:26:50;;;;;;;0.95;0.85;;;;;;;;;;7392169;19;20837;-88
2023/06/03 12:29:17;;;;;;;0.80;0.80;;;;;;;;;;7390766;19;20160;-89
2023/06/03 12:31:58;;;;;;;1.13;1.08;;;;;;;;;;7390378;19;20156;-89
2023/06/03 12:34:35;;;;;;;1.25;1.17;;;;;;;;;;7391815;19;20139;-87
2023/06/03 12:37:03;;;;;;;1.10;1.00;;;;;;;;;;7393969;19;20515;-87
2023/06/03 12:39:48;;;;;;;2.15;1.30;;;;;;;;;;7393502;19;20143;-85
2023/06/03 12:42:20;;;;;;;5.80;1.02;;;;;;;;;;7401952;19;20634;-86
2023/06/03 12:44:54;;;;;;;0.52;0.52;;;;;;;;;;7397468;19;20137;-87
2023/06/03 12:47:24;;;;;;;0.93;0.93;;;;;;;;;;7403496;19;20133;-88
2023/06/03 12:50:08;;;;;;;1.10;1.05;;;;;;;;;;7401026;19;20181;-87
2023/06/03 12:52:37;;;;;;;0.85;0.85;;;;;;;;;;7403362;19;20144;-87
2023/06/03 12:55:14;;;;;;;2.85;1.27;;;;;;;;;;7400592;19;20599;-86
2023/06/03 12:57:45;;;;;;;0.60;0.60;;;;;;;;;;7394354;19;20137;-88
2023/06/03 13:00:19;;;;;;;1.30;1.20;;;;;;;;;;7397935;19;20164;-88
2023/06/03 13:02:50;;;;;;;1.10;1.05;;;;;;;;;;7403545;19;20184;-88
2023/06/03 13:05:17;;;;;;;0.70;0.70;;;;;;;;;;7394557;19;20590;-86
2023/06/03 13:07:44;;;;;;;1.10;1.00;;;;;;;;;;7392038;19;20152;-87
2023/06/03 13:10:12;;;;;;;0.75;0.75;;;;;;;;;;7387930;19;20153;-86
2023/06/03 13:12:50;;;;;;;0.82;0.82;;;;;;;;;;7399262;19;20137;-87
2023/06/03 13:15:24;;;;;;;0.68;0.68;;;;;;;;;;7402173;19;20614;-88
2023/06/03 13:17:52;;;;;;;1.10;1.05;;;;;;;;;;7403152;19;20706;-87
2023/06/03 13:20:21;;;;;;;1.42;1.35;;;;;;;;;;7399975;19;20156;-87
2023/06/03 13:22:48;;;;;;;0.90;0.90;;;;;;;;;;7397556;19;20133;-88
2023/06/03 13:25:24;;;;;;;1.55;1.45;;;;;;;;;;7395579;19;20148;-86
2023/06/03 13:27:51;;;;;;;1.23;1.17;;;;;;;;;;7392898;19;20144;-87
2023/06/03 13:30:18;;;;;;;1.15;1.15;;;;;;;;;;7389731;19;20173;-87
2023/06/03 13:32:45;;;;;;;0.57;0.57;;;;;;;;;;7392672;19;20140;-87
2023/06/03 13:35:12;;;;;;;0.88;0.88;;;;;;;;;;7393244;19;20157;-86
2023/06/03 13:37:41;;;;;;;1.05;1.05;;;;;;;;;;7390181;19;20149;-87
2023/06/03 13:40:09;;;;;;;1.38;1.30;;;;;;;;;;7395895;19;20531;-88
2023/06/03 13:42:36;;;;;;;0.70;0.70;;;;;;;;;;7398676;19;20152;-87
2023/06/03 13:45:07;;;;;;;0.57;0.57;;;;;;;;;;7395971;19;20500;-87
2023/06/03 13:47:35;;;;;;;1.48;1.38;;;;;;;;;;7394278;19;20137;-87
2023/06/03 13:50:05;;;;;;;0.95;0.95;;;;;;;;;;7398179;19;20148;-86
2023/06/03 13:52:32;;;;;;;1.13;1.13;;;;;;;;;;7396455;19;20206;-87
2023/06/03 13:55:18;;;;;;;2.50;1.58;;;;;;;;;;7393597;19;20140;-87
2023/06/03 13:57:51;;;;;;;0.47;0.45;;;;;;;;;;7395102;19;20133;-89
2023/06/03 14:00:20;;;;;;;0.90;0.90;;;;;;;;;;7378477;19;20200;-88
2023/06/03 14:02:50;;;;;;;5.32;1.30;;;;;;;;;;7391307;19;20149;-87
2023/06/03 14:05:16;;;;;;;1.05;1.00;;;;;;;;;;7389498;19;20153;-87
2023/06/03 14:07:43;;;;;;;0.90;0.77;;;;;;;;;;7397278;19;20652;-87
2023/06/03 14:10:19;;;;;;;1.60;1.50;;;;;;;;;;7395340;19;20167;-88
2023/06/03 14:12:50;;;;;;;1.30;1.25;;;;;;;;;;7391485;19;20148;-88
2023/06/03 14:15:18;;;;;;;1.75;1.08;;;;;;;;;;7389921;19;20164;-86
2023/06/03 14:17:44;;;;;;;0.60;0.60;;;;;;;;;;7399970;19;20145;-88
2023/06/03 14:20:11;;;;;;;1.17;1.10;;;;;;;;;;7396232;19;20149;-88
2023/06/03 14:22:38;;;;;;;1.58;1.48;;;;;;;;;;7397591;19;20133;-88
2023/06/03 14:25:05;;;;;;;1.83;1.73;;;;;;;;;;7390704;19;20133;-88
2023/06/03 14:27:31;;;;;;;1.55;1.45;;;;;;;;;;7390819;19;22010;-89
2023/06/03 14:29:58;;;;;;;1.38;1.27;;;;;;;;;;7391848;19;20176;-88
2023/06/03 14:32:25;;;;;;;1.05;0.98;;;;;;;;;;7390854;19;20135;-88
2023/06/03 14:34:52;;;;;;;0.80;0.80;;;;;;;;;;7390412;19;20598;-88
2023/06/03 14:37:18;;;;;;;0.82;0.82;;;;;;;;;;7393892;19;20129;-88
2023/06/03 14:39:45;;;;;;;0.82;0.70;;;;;;;;;;7392668;19;20197;-88
2023/06/03 14:42:13;;;;;;;1.13;1.13;;;;;;;;;;7392855;19;20673;-88
2023/06/03 14:44:40;;;;;;;1.63;1.23;;;;;;;;;;7414368;19;20137;-88
2023/06/03 14:47:26;;;;;;;0.80;0.80;;;;;;;;;;7432299;19;20129;-88
2023/06/03 14:49:54;;;;;;;0.80;0.80;;;;;;;;;;7432262;19;20618;-88
2023/06/03 14:52:21;;;;;;;0.88;0.88;;;;;;;;;;7430095;19;20137;-88
2023/06/03 14:54:47;;;;;;;0.65;0.65;;;;;;;;;;7430377;19;20177;-88
2023/06/03 14:57:14;;;;;;;1.05;1.02;;;;;;;;;;7430716;19;20129;-87
2023/06/03 14:59:41;;;;;;;1.25;1.15;;;;;;;;;;7430167;19;20153;-89
2023/06/03 15:02:07;;;;;;;0.95;0.95;;;;;;;;;;7431591;19;20141;-91
2023/06/03 15:04:34;;;;;;;0.77;0.77;;;;;;;;;;7428325;19;20129;-89
2023/06/03 15:07:01;;;;;;;12.55;1.50;;;;;;;;;;7416448;19;20141;-88
2023/06/03 15:09:27;;;;;;;0.85;0.85;;;;;;;;;;7408924;19;20145;-88
2023/06/03 15:11:54;;;;;;;0.70;0.70;;;;;;;;;;7402636;19;20157;-88
2023/06/03 15:14:23;;;;;;;0.73;0.73;;;;;;;;;;7402240;19;20217;-88
2023/06/03 15:16:50;;;;;;;0.75;0.75;;;;;;;;;;7401339;19;20145;-88
2023/06/03 15:19:17;;;;;;;0.90;0.90;;;;;;;;;;7406309;19;20141;-88
2023/06/03 15:21:44;;;;;;;1.25;1.20;;;;;;;;;;7404425;19;20163;-88
2023/06/03 15:24:11;;;;;;;0.60;0.60;;;;;;;;;;7409297;19;20166;-88
2023/06/03 15:26:37;;;;;;;0.63;0.63;;;;;;;;;;7406952;19;20129;-88
2023/06/03 15:29:04;;;;;;;1.25;1.25;;;;;;;;;;7398477;19;20598;-89
2023/06/03 15:31:31;;;;;;;1.05;1.05;;;;;;;;;;7398715;19;20219;-88
2023/06/03 15:33:58;;;;;;;1.00;1.00;;;;;;;;;;7400385;19;20147;-87
2023/06/03 15:36:24;;;;;;;0.93;0.93;;;;;;;;;;7396324;19;20140;-89
2023/06/03 15:38:51;;;;;;;1.52;1.42;;;;;;;;;;7396150;19;20141;-88
2023/06/03 15:41:18;;;;;;;2.72;1.95;;;;;;;;;;7398120;19;20180;-88
2023/06/03 15:43:44;;;;;;;2.08;1.92;;;;;;;;;;7398963;19;20547;-88
2023/06/03 15:46:11;;;;;;;1.58;1.48;;;;;;;;;;7402063;19;20140;-87
2023/06/03 15:48:38;;;;;;;1.27;0.77;;;;;;;;;;7398878;19;20133;-88
2023/06/03 15:51:05;;;;;;;4.53;1.50;;;;;;;;;;7395289;19;20228;-88
2023/06/03 15:53:32;;;;;;;1.58;1.48;;;;;;;;;;7395715;19;20636;-88
2023/06/03 15:55:58;;;;;;;0.70;0.70;;;;;;;;;;7396984;19;20137;-89
2023/06/03 15:58:25;;;;;;;1.67;1.40;;;;;;;;;;7397155;19;20166;-88
2023/06/03 16:00:52;;;;;;;0.88;0.88;;;;;;;;;;7394754;19;20149;-88
2023/06/03 16:03:18;;;;;;;1.38;1.25;;;;;;;;;;7393609;19;20157;-88
2023/06/03 16:05:45;;;;;;;1.08;1.08;;;;;;;;;;7399094;19;20174;-88
2023/06/03 16:08:12;;;;;;;0.60;0.60;;;;;;;;;;7395898;19;20216;-89
2023/06/03 16:10:39;;;;;;;1.35;1.30;;;;;;;;;;7397199;19;20618;-89
2023/06/03 16:13:06;;;;;;;1.13;1.02;;;;;;;;;;7397333;19;20136;-88
2023/06/03 16:15:33;;;;;;;0.90;0.90;;;;;;;;;;7396315;19;20401;-91
2023/06/03 16:17:59;;;;;;;1.50;1.40;;;;;;;;;;7399155;19;20135;-88
2023/06/03 16:20:26;;;;;;;1.92;0.80;;;;;;;;;;7399848;19;20196;-88
2023/06/03 16:22:53;;;;;;;0.73;0.73;;;;;;;;;;7399074;19;20140;-89
2023/06/03 16:25:20;;;;;;;1.55;1.20;;;;;;;;;;7395986;19;20147;-88
2023/06/03 16:27:49;;;;;;;1.15;1.10;;;;;;;;;;7397536;19;20155;-87
2023/06/03 16:30:16;;;;;;;0.63;0.63;;;;;;;;;;7399837;19;20165;-86
2023/06/03 16:32:43;;;;;;;1.35;1.25;;;;;;;;;;7400599;19;20150;-86
2023/06/03 16:35:09;;;;;;;0.77;0.77;;;;;;;;;;7398554;19;20148;-87
2023/06/03 16:37:36;;;;;;;2.70;2.15;;;;;;;;;;7401814;19;20141;-86
2023/06/03 16:40:03;;;;;;;1.15;1.08;;;;;;;;;;7400160;19;20190;-87
2023/06/03 16:42:30;;;;;;;0.88;0.82;;;;;;;;;;7401885;19;20180;-87
2023/06/03 16:44:57;;;;;;;0.73;0.73;;;;;;;;;;7403588;19;20149;-86
2023/06/03 16:47:23;;;;;;;0.75;0.75;;;;;;;;;;7401257;19;20177;-87
2023/06/03 16:49:50;;;;;;;0.82;0.82;;;;;;;;;;7400833;19;20144;-87
2023/06/03 16:52:18;;;;;;;0.50;0.50;;;;;;;;;;7403131;19;20133;-84
2023/06/03 16:54:45;;;;;;;0.95;0.77;;;;;;;;;;7412976;19;20593;-88
2023/06/03 16:57:12;;;;;;;1.00;0.90;;;;;;;;;;7414295;19;20149;-89
2023/06/03 16:59:38;;;;;;;1.10;1.10;;;;;;;;;;7393100;19;20141;-90
2023/06/03 17:02:05;;;;;;;0.82;0.82;;;;;;;;;;7393209;19;20594;-87
2023/06/03 17:04:32;;;;;;;1.27;1.17;;;;;;;;;;7394064;19;20520;-86
2023/06/03 17:06:59;;;;;;;1.73;1.30;;;;;;;;;;7395603;19;20615;-88
2023/06/03 17:09:26;;;;;;;1.25;1.15;;;;;;;;;;7391360;19;20148;-90
2023/06/03 17:11:52;;;;;;;4.13;1.45;;;;;;;;;;7390527;19;20169;-91
2023/06/03 17:14:19;;;;;;;0.63;0.63;;;;;;;;;;7387237;19;20310;-90
2023/06/03 17:16:46;;;;;;;2.55;1.20;;;;;;;;;;7388913;19;20149;-90
2023/06/03 17:19:12;;;;;;;0.63;0.63;;;;;;;;;;7391049;19;20145;-91
2023/06/03 17:21:39;;;;;;;1.08;1.08;;;;;;;;;;7390701;19;20180;-91
2023/06/03 17:24:06;;;;;;;0.90;0.90;;;;;;;;;;7390788;19;20159;-91
2023/06/03 17:26:34;;;;;;;1.17;1.17;;;;;;;;;;7398987;19;20161;-88
2023/06/03 17:29:04;;;;;;;1.40;1.38;;;;;;;;;;7401628;19;20169;-88
2023/06/03 17:45:28;;;;;;;0.60;0.60;;;;;;;;;;7395766;19;20162;-87
2023/06/03 17:52:34;;;;;;;1.52;1.42;;;;;;;;;;7391359;19;20193;-90
2023/06/03 17:55:41;;;;;;;1.33;1.20;;;;;;;;;;7388232;19;20156;-87
2023/06/03 17:58:28;;;;;;;1.02;0.98;;;;;;;;;;7390186;19;20180;-89
2023/06/03 19:22:23;;;;;;;1.52;1.42;;;;;;;;;;7394812;19;20248;-87
2023/06/03 19:24:50;;;;;;;1.05;1.02;;;;;;;;;;7396581;19;20141;-87
2023/06/03 19:27:16;;;;;;;1.30;1.20;;;;;;;;;;7396146;19;20180;-88
2023/06/03 19:29:43;;;;;;;0.82;0.82;;;;;;;;;;7397046;19;20732;-89
2023/06/03 19:32:10;;;;;;;1.20;1.20;;;;;;;;;;7405938;19;20157;-87
2023/06/03 19:34:36;;;;;;;1.45;0.90;;;;;;;;;;7399860;19;20140;-87
2023/06/03 19:37:06;;;;;;;0.80;0.80;;;;;;;;;;7404433;19;20143;-87
2023/06/03 19:39:33;;;;;;;1.67;1.25;;;;;;;;;;7401741;19;20148;-87
2023/06/03 19:42:00;;;;;;;3.38;1.27;;;;;;;;;;7397514;19;20149;-86
2023/06/03 19:44:26;;;;;;;1.48;1.38;;;;;;;;;;7401533;19;20136;-84
2023/06/03 19:46:54;;;;;;;1.58;1.25;;;;;;;;;;7400891;19;20140;-84
2023/06/03 19:49:21;;;;;;;0.90;0.90;;;;;;;;;;7400339;19;20145;-84
2023/06/03 19:51:48;;;;;;;1.13;1.05;;;;;;;;;;7398117;19;20185;-84
2023/06/03 19:54:16;;;;;;;0.65;0.65;;;;;;;;;;7396027;19;20132;-83
2023/06/03 19:56:43;;;;;;;0.90;0.90;;;;;;;;;;7399669;19;20155;-83
2023/06/03 19:59:13;;;;;;;2.88;0.77;;;;;;;;;;7400106;19;20151;-83
2023/06/03 20:01:40;;;;;;;1.30;1.20;;;;;;;;;;7399096;19;20172;-83
2023/06/03 20:04:07;;;;;;;1.17;1.17;;;;;;;;;;7399061;19;20129;-83
2023/06/03 20:06:35;;;;;;;0.90;0.90;;;;;;;;;;7402367;19;20499;-83
2023/06/03 20:09:02;;;;;;;1.85;1.75;;;;;;;;;;7396631;19;20133;-83
2023/06/03 20:11:29;;;;;;;1.23;0.95;;;;;;;;;;7397752;19;20653;-83
2023/06/03 20:13:55;;;;;;;1.02;1.02;;;;;;;;;;7390437;19;20141;-83
2023/06/03 20:16:22;;;;;;;1.17;1.05;;;;;;;;;;7395707;19;20155;-82
2023/06/03 20:18:49;;;;;;;0.57;0.57;;;;;;;;;;7391869;19;20173;-82
2023/06/03 20:21:16;;;;;;;0.90;0.90;;;;;;;;;;7391450;19;20176;-83
2023/06/03 20:23:44;;;;;;;1.00;1.00;;;;;;;;;;7394811;19;20494;-83
2023/06/03 20:26:12;;;;;;;2.50;1.35;;;;;;;;;;7395738;19;20141;-83
2023/06/03 20:28:38;;;;;;;1.52;1.17;;;;;;;;;;7395352;19;20151;-84
2023/06/03 20:31:07;;;;;;;0.75;0.75;;;;;;;;;;7393304;19;20565;-85
2023/06/03 20:33:35;;;;;;;0.70;0.70;;;;;;;;;;7389864;19;20177;-84
2023/06/03 20:36:01;;;;;;;0.60;0.60;;;;;;;;;;7392336;19;20152;-84
2023/06/03 20:38:31;;;;;;;0.75;0.75;;;;;;;;;;7396088;19;20133;-86
2023/06/03 20:44:38;;;;;;;0.90;0.90;;;;;;;;;;7389818;19;20158;-86
2023/06/03 20:47:13;;;;;;;2.42;1.38;;;;;;;;;;7396905;19;20133;-85
2023/06/03 20:53:08;;;;;;;0.82;0.82;;;;;;;;;;7396563;19;20188;-87
2023/06/03 20:59:25;;;;;;;0.88;0.88;;;;;;;;;;7385064;19;20244;-88
2023/06/03 21:06:10;;;;;;;1.30;1.20;;;;;;;;;;7390834;19;20239;-87
2023/06/03 21:16:13;;;;;;;0.73;0.73;;;;;;;;;;7391016;19;20225;-88
2023/06/03 21:19:56;;;;;;;1.00;0.98;;;;;;;;;;7387620;19;20141;-88
2023/06/03 21:23:38;;;;;;;0.80;0.60;;;;;;;;;;7389183;19;20495;-88
2023/06/03 21:26:34;;;;;;;0.85;0.85;;;;;;;;;;7391309;19;20152;-87
2023/06/03 21:30:06;;;;;;;0.90;0.90;;;;;;;;;;7390179;19;20164;-87
2023/06/03 21:33:15;;;;;;;0.98;0.98;;;;;;;;;;7390022;19;20171;-88
2023/06/03 21:39:44;;;;;;;0.82;0.82;;;;;;;;;;7391253;19;20575;-87
2023/06/03 21:42:11;;;;;;;1.63;1.17;;;;;;;;;;7385896;19;20513;-87
2023/06/03 21:44:37;;;;;;;0.65;0.60;;;;;;;;;;7391582;19;20139;-88
2023/06/03 21:47:05;;;;;;;1.15;1.05;;;;;;;;;;7389642;19;20151;-88
2023/06/03 21:49:31;;;;;;;2.00;1.15;;;;;;;;;;7395393;19;20514;-88
2023/06/03 21:51:58;;;;;;;1.15;1.15;;;;;;;;;;7391048;19;20181;-88